CheckWX is a tool to help pilots better visualize weather data.  It is not intended as a substitute for an official pre-flight weather briefing.

05:40:50 UTC

KCGE METAR
Cambridge-Dorchester Regional Airport
Cambridge, Maryland, USA
Current

6 mins ago

KCGE 180535Z AUTO 36009KT 10SM 05/03 A2994 RMK A01
Observed
Nov-18 @ 05:35 UTC
Wind
  • 360° at 9 KTS
Visibility
10 SM
Temperature
C / 41°F
Dewpoint
C / 37°F
Humidity
87%
Altimeter
29.94" Hg
Pressure
1013.92 hPa
Previous

26 mins ago

KCGE 180515Z AUTO 36011KT 10SM 05/03 A2994 RMK A01
Observed
Nov-18 @ 05:15 UTC
Wind
  • 360° at 11 KTS
Visibility
10 SM
Temperature
C / 41°F
Dewpoint
C / 37°F
Humidity
87%
Altimeter
29.94" Hg
Pressure
1013.92 hPa
Previous

46 mins ago

KCGE 180455Z AUTO 01010G17KT 10SM 06/03 A2996 RMK A01
Observed
Nov-18 @ 04:55 UTC
Wind
  • 010° at 10 KTS
  • Gusting to 17 KTS
Visibility
10 SM
Temperature
C / 43°F
Dewpoint
C / 37°F
Humidity
81%
Altimeter
29.96" Hg
Pressure
1014.52 hPa